Time;durP1;ratioP1;P1;durP2;ratioP2;P2;SDS_P1;SDS_P2;PMS_P1;PMS_P2;Temp;Humidity;BMP_temperature;BMP_pressure;BME280_temperature;BME280_humidity;BME280_pressure;Samples;Min_cycle;Max_cycle;Signal;HPM_P1;HPM_P2
2021/12/26 00:00:53;;;;;;;22.85;9.20;;;;;;;-9.01;100.00;98137.47;4088056;28;20058;-70
2021/12/26 00:02:54;;;;;;;27.55;10.05;;;;;;;-9.00;100.00;98139.06;4088655;28;20350;-70
2021/12/26 00:04:54;;;;;;;21.35;10.00;;;;;;;-8.99;100.00;98139.88;4089277;28;20086;-70
2021/12/26 00:06:55;;;;;;;22.42;9.75;;;;;;;-8.97;100.00;98146.59;4087178;28;20120;-70
2021/12/26 00:08:58;;;;;;;26.20;9.65;;;;;;;-8.89;100.00;98140.72;4087666;28;20430;-70
2021/12/26 00:11:00;;;;;;;23.42;8.90;;;;;;;-8.91;100.00;98142.06;4087735;28;20055;-70
2021/12/26 00:13:01;;;;;;;22.90;10.55;;;;;;;-8.97;100.00;98138.53;4087690;28;20079;-71
2021/12/26 00:15:04;;;;;;;24.48;10.02;;;;;;;-9.10;100.00;98134.47;4088898;28;20533;-70
2021/12/26 00:17:04;;;;;;;25.48;11.98;;;;;;;-9.13;100.00;98128.81;4086620;28;20114;-70
2021/12/26 00:19:04;;;;;;;22.58;10.80;;;;;;;-9.12;100.00;98133.91;4087792;28;20118;-70
2021/12/26 00:21:07;;;;;;;25.90;11.57;;;;;;;-9.14;100.00;98127.19;4087682;28;20130;-70
2021/12/26 00:23:08;;;;;;;21.92;9.63;;;;;;;-9.13;100.00;98126.13;4087054;28;20047;-70
2021/12/26 00:25:10;;;;;;;24.85;10.40;;;;;;;-9.22;100.00;98122.31;4092837;28;20504;-70
2021/12/26 00:27:10;;;;;;;19.90;10.38;;;;;;;-9.36;100.00;98121.94;4086770;28;20086;-70
2021/12/26 00:29:14;;;;;;;25.88;11.00;;;;;;;-9.38;100.00;98124.91;4087244;28;20051;-70
2021/12/26 00:31:16;;;;;;;20.73;9.98;;;;;;;-9.39;100.00;98119.81;4090740;28;20051;-70
2021/12/26 00:33:16;;;;;;;;;;;;;;;-9.42;100.00;98123.81;4092221;28;20043;-70
2021/12/26 00:35:19;;;;;;;23.92;9.60;;;;;;;-9.47;100.00;98117.59;4090062;28;20072;-70
2021/12/26 00:37:19;;;;;;;23.48;10.13;;;;;;;-9.54;100.00;98133.88;4087920;28;20575;-70
2021/12/26 00:39:20;;;;;;;26.27;10.88;;;;;;;-9.63;100.00;98114.81;4090530;28;20503;-70
2021/12/26 00:41:20;;;;;;;29.98;11.00;;;;;;;-9.60;100.00;98131.41;4088919;28;20054;-70
2021/12/26 00:43:21;;;;;;;31.63;12.30;;;;;;;-9.65;100.00;98119.63;4091022;28;20413;-70
2021/12/26 00:45:21;;;;;;;28.27;11.00;;;;;;;-9.69;100.00;98115.03;4090231;28;20094;-70
2021/12/26 00:47:22;;;;;;;26.27;11.23;;;;;;;-9.65;100.00;98110.78;4091885;28;20047;-70
2021/12/26 00:49:22;;;;;;;29.83;12.45;;;;;;;-9.66;100.00;98111.84;4093421;28;20090;-70
2021/12/26 00:51:23;;;;;;;21.52;10.93;;;;;;;-9.73;100.00;98116.59;4088139;28;20113;-70
2021/12/26 00:53:24;;;;;;;22.00;10.63;;;;;;;-9.77;100.00;98102.09;4088203;28;20469;-70
2021/12/26 00:55:25;;;;;;;19.77;9.10;;;;;;;-9.82;100.00;98097.53;4090818;28;20420;-70
2021/12/26 00:57:25;;;;;;;26.63;9.35;;;;;;;-9.77;100.00;98096.75;4087228;28;20132;-70
2021/12/26 00:59:26;;;;;;;31.40;12.55;;;;;;;-9.76;100.00;98098.38;4089350;28;20051;-70
2021/12/26 01:01:26;;;;;;;27.10;11.50;;;;;;;-9.71;100.00;98098.41;4095366;28;20508;-70
2021/12/26 01:03:27;;;;;;;20.45;8.95;;;;;;;-9.69;100.00;98090.91;4090596;28;20442;-71
2021/12/26 01:05:29;;;;;;;21.02;9.13;;;;;;;-9.74;100.00;98091.72;4090551;28;20470;-70
2021/12/26 01:07:56;;;;;;;17.52;8.07;;;;;;;-9.72;100.00;98092.25;4091411;28;20158;-70
2021/12/26 01:09:57;;;;;;;17.15;8.00;;;;;;;-9.72;100.00;98094.94;4095482;28;20042;-70
2021/12/26 01:12:00;;;;;;;20.88;9.98;;;;;;;-9.76;100.00;98098.38;4091301;28;20047;-71
2021/12/26 01:14:04;;;;;;;19.13;9.20;;;;;;;-9.76;100.00;98107.22;4093130;28;20043;-71
2021/12/26 01:16:09;;;;;;;20.73;7.78;;;;;;;-9.79;100.00;98099.69;4090126;28;20058;-70
2021/12/26 01:18:10;;;;;;;19.67;9.20;;;;;;;-9.81;100.00;98101.81;4092261;28;20038;-71
2021/12/26 01:20:24;;;;;;;16.88;8.15;;;;;;;-9.80;100.00;98098.06;4092536;28;20031;-71
2021/12/26 01:22:26;;;;;;;22.92;8.77;;;;;;;-9.83;100.00;98101.28;4091091;28;20134;-70
2021/12/26 01:24:28;;;;;;;24.45;9.43;;;;;;;-9.80;100.00;98105.31;4091639;28;20521;-70
2021/12/26 01:26:29;;;;;;;;;;;;;;;-9.74;100.00;98112.31;4094349;28;20506;-70
2021/12/26 01:28:29;;;;;;;19.63;7.78;;;;;;;-9.75;100.00;98116.88;4091281;28;19937;-71
2021/12/26 01:30:33;;;;;;;21.58;8.10;;;;;;;-9.73;100.00;98112.06;4092157;28;20165;-70
2021/12/26 01:32:33;;;;;;;17.70;8.23;;;;;;;-9.62;100.00;98116.41;4093845;28;20081;-70
2021/12/26 01:34:33;;;;;;;22.33;9.32;;;;;;;-9.52;100.00;98112.19;4090775;28;20040;-70
2021/12/26 01:36:34;;;;;;;15.95;7.40;;;;;;;-9.44;100.00;98111.72;4091755;28;20065;-70
2021/12/26 01:38:35;;;;;;;21.83;9.38;;;;;;;-9.44;100.00;98103.69;4093382;28;20038;-70
2021/12/26 01:40:38;;;;;;;20.08;8.38;;;;;;;-9.51;100.00;98105.81;4090533;28;20039;-70
2021/12/26 01:42:39;;;;;;;20.88;8.75;;;;;;;-9.52;100.00;98106.84;4090336;28;20058;-70
2021/12/26 01:44:41;;;;;;;20.45;9.35;;;;;;;-9.56;100.00;98109.25;4091440;28;20050;-70
2021/12/26 01:46:43;;;;;;;21.35;8.05;;;;;;;-9.48;100.00;98100.72;4090107;28;20115;-70
2021/12/26 01:48:43;;;;;;;22.00;9.07;;;;;;;-9.57;100.00;98096.13;4092882;28;20561;-70
2021/12/26 01:50:46;;;;;;;25.63;9.25;;;;;;;-9.53;100.00;98098.00;4091653;28;20051;-70
2021/12/26 01:52:49;;;;;;;20.52;9.25;;;;;;;-9.62;100.00;98096.88;4090273;28;20499;-71
2021/12/26 01:55:00;;;;;;;19.48;8.05;;;;;;;-9.73;100.00;98093.31;4092836;28;20052;-71
2021/12/26 01:57:02;;;;;;;19.98;8.80;;;;;;;-9.78;100.00;98092.47;4090337;28;20131;-70
2021/12/26 01:59:09;;;;;;;25.70;8.77;;;;;;;-9.79;100.00;98093.53;4091509;28;20046;-70
2021/12/26 02:01:12;;;;;;;19.25;8.25;;;;;;;-9.81;100.00;98092.97;4093261;28;20050;-70
2021/12/26 02:03:13;;;;;;;21.92;8.80;;;;;;;-9.94;100.00;98097.69;4090567;28;20039;-70
2021/12/26 02:05:14;;;;;;;17.25;9.63;;;;;;;-9.92;100.00;98095.59;4090662;28;20398;-70
2021/12/26 02:07:15;;;;;;;20.13;8.38;;;;;;;-10.02;100.00;98092.81;4093850;28;20082;-70
2021/12/26 02:09:16;;;;;;;22.88;8.70;;;;;;;-9.97;100.00;98100.06;4090253;28;20513;-70
2021/12/26 02:11:16;;;;;;;20.60;9.00;;;;;;;-9.88;100.00;98089.72;4092789;28;20146;-70
2021/12/26 02:13:17;;;;;;;16.85;7.53;;;;;;;-9.89;100.00;98101.50;4089610;28;20550;-70
2021/12/26 02:15:18;;;;;;;18.10;8.02;;;;;;;-9.95;100.00;98100.63;4088517;28;20074;-70
2021/12/26 02:17:18;;;;;;;15.02;7.60;;;;;;;-10.01;100.00;98098.97;4088964;28;20442;-70
2021/12/26 02:19:18;;;;;;;17.35;7.75;;;;;;;-9.96;100.00;98105.16;4089167;28;20058;-70
2021/12/26 02:21:46;;;;;;;16.88;7.97;;;;;;;-10.01;100.00;98093.59;4093915;28;20418;-70
2021/12/26 02:27:58;;;;;;;16.73;7.13;;;;;;;-9.98;100.00;98093.91;4092934;28;20069;-70
2021/12/26 02:30:09;;;;;;;19.02;8.43;;;;;;;-10.01;100.00;98089.09;4097444;28;20146;-70
2021/12/26 02:32:09;;;;;;;14.65;7.00;;;;;;;-10.03;100.00;98088.50;4095781;28;20039;-70
2021/12/26 02:34:10;;;;;;;17.17;8.88;;;;;;;-10.06;100.00;98096.25;4088580;28;20043;-70
2021/12/26 02:36:11;;;;;;;17.48;7.78;;;;;;;-10.12;100.00;98090.03;4088173;28;20299;-71
2021/12/26 02:38:12;;;;;;;19.77;7.80;;;;;;;-10.12;100.00;98092.72;4093014;28;20417;-70
2021/12/26 02:40:16;;;;;;;19.23;8.65;;;;;;;-10.11;100.00;98091.66;4092764;28;20035;-70
2021/12/26 02:42:21;;;;;;;16.67;8.23;;;;;;;-10.07;100.00;98097.31;4089612;28;20028;-70
2021/12/26 02:44:22;;;;;;;16.50;7.80;;;;;;;-10.04;100.00;98086.09;4088049;28;20043;-70
2021/12/26 02:46:25;;;;;;;18.33;7.75;;;;;;;-10.11;100.00;98096.19;4088902;28;20051;-70
2021/12/26 02:48:25;;;;;;;16.23;7.97;;;;;;;-10.09;100.00;98083.38;4091526;28;20138;-70
2021/12/26 02:50:28;;;;;;;19.33;8.15;;;;;;;-10.19;100.00;98087.56;4089050;28;20097;-70
2021/12/26 02:52:29;;;;;;;18.50;7.85;;;;;;;-10.24;100.00;98089.44;4087254;28;20063;-70
2021/12/26 02:54:32;;;;;;;20.02;9.65;;;;;;;-10.31;100.00;98083.47;4089477;28;20043;-70
2021/12/26 02:56:34;;;;;;;19.30;8.45;;;;;;;-10.29;100.00;98086.69;4088501;28;20373;-70
2021/12/26 02:58:35;;;;;;;17.00;8.00;;;;;;;-10.38;100.00;98081.00;4091015;28;20047;-70
2021/12/26 03:00:44;;;;;;;21.70;8.75;;;;;;;-10.39;100.00;98079.41;4099162;28;20733;-70
2021/12/26 03:02:47;;;;;;;21.58;8.73;;;;;;;-10.38;100.00;98081.00;4101720;28;20054;-70
2021/12/26 03:04:48;;;;;;;19.23;7.45;;;;;;;-10.52;100.00;98080.59;4095413;28;20062;-70
2021/12/26 03:08:51;;;;;;;20.00;8.77;;;;;;;-10.51;100.00;98090.25;4088402;28;20040;-70
2021/12/26 03:10:52;;;;;;;19.23;8.13;;;;;;;-10.66;100.00;98084.72;4088808;28;20047;-70
2021/12/26 03:12:56;;;;;;;19.77;7.33;;;;;;;-10.75;100.00;98083.56;4089102;28;20047;-70
2021/12/26 03:14:57;;;;;;;19.17;8.05;;;;;;;-10.64;100.00;98081.81;4088097;28;20279;-70
2021/12/26 03:17:00;;;;;;;21.88;8.85;;;;;;;-10.57;100.00;98072.53;4088099;28;20043;-70
2021/12/26 03:19:01;;;;;;;21.55;8.55;;;;;;;-10.51;100.00;98084.06;4087821;28;20204;-70
2021/12/26 03:21:03;;;;;;;29.73;10.45;;;;;;;-10.48;100.00;98080.91;4088490;28;20495;-70
2021/12/26 03:23:04;;;;;;;24.42;8.88;;;;;;;-10.33;100.00;98085.59;4087082;28;20047;-70
2021/12/26 03:25:10;;;;;;;20.67;8.90;;;;;;;-10.38;100.00;98074.84;4088150;28;20047;-70
2021/12/26 03:27:12;;;;;;;22.27;7.55;;;;;;;-10.42;100.00;98079.91;4088160;28;20278;-70
2021/12/26 03:29:12;;;;;;;20.65;8.82;;;;;;;-10.51;100.00;98081.41;4087467;28;20051;-70
2021/12/26 03:31:13;;;;;;;14.52;7.18;;;;;;;-10.58;100.00;98078.94;4088424;28;20150;-70
2021/12/26 03:33:14;;;;;;;21.52;9.20;;;;;;;-10.65;100.00;98082.88;4087634;28;20066;-70
2021/12/26 03:35:14;;;;;;;21.70;8.23;;;;;;;-10.72;100.00;98069.69;4088690;28;20430;-70
2021/12/26 03:37:15;;;;;;;21.92;9.43;;;;;;;-10.66;100.00;98071.38;4103904;28;20093;-70
2021/12/26 03:39:18;;;;;;;19.90;7.30;;;;;;;-10.64;100.00;98076.47;4090538;28;20051;-70
2021/12/26 03:41:20;;;;;;;17.30;7.45;;;;;;;-10.73;100.00;98077.97;4095264;28;20506;-70
2021/12/26 03:43:21;;;;;;;16.52;7.15;;;;;;;-10.79;100.00;98083.25;4090481;28;20480;-70
2021/12/26 03:45:24;;;;;;;20.50;8.13;;;;;;;-10.76;100.00;98076.56;4088955;28;20051;-70
2021/12/26 03:47:25;;;;;;;16.83;7.00;;;;;;;-10.80;100.00;98086.97;4088878;28;20051;-70
2021/12/26 03:49:26;;;;;;;19.17;7.78;;;;;;;-10.82;100.00;98086.44;4088831;28;20388;-70
2021/12/26 03:51:27;;;;;;;14.23;6.70;;;;;;;-10.81;100.00;98087.22;4088618;28;20061;-70
2021/12/26 03:53:27;;;;;;;19.30;8.60;;;;;;;-10.81;100.00;98082.69;4088956;28;20047;-70
2021/12/26 03:55:29;;;;;;;21.13;8.70;;;;;;;-10.80;100.00;98078.16;4087514;28;20141;-70
2021/12/26 03:57:29;;;;;;;18.30;7.93;;;;;;;-10.82;100.00;98073.06;4087482;28;20055;-70
2021/12/26 03:59:29;;;;;;;14.23;6.65;;;;;;;-10.85;100.00;98086.91;4087050;28;20053;-70
2021/12/26 04:01:30;;;;;;;17.55;7.55;;;;;;;-10.73;100.00;98084.13;4088256;28;20532;-70
2021/12/26 04:03:30;;;;;;;19.08;8.35;;;;;;;-10.70;100.00;98080.13;4089336;28;20326;-70
2021/12/26 04:05:31;;;;;;;19.17;8.30;;;;;;;-10.71;100.00;98083.88;4087748;28;20781;-70
2021/12/26 04:07:31;;;;;;;17.80;7.68;;;;;;;-10.58;100.00;98073.59;4087512;28;20051;-70
2021/12/26 04:09:32;;;;;;;16.92;7.57;;;;;;;-10.57;100.00;98074.41;4091521;28;20040;-70
2021/12/26 04:11:32;;;;;;;17.27;7.60;;;;;;;-10.58;100.00;98072.78;4088000;28;20055;-70
2021/12/26 04:13:35;;;;;;;19.40;8.20;;;;;;;-10.59;100.00;98066.63;4087318;28;20043;-70
2021/12/26 04:15:36;;;;;;;17.98;7.43;;;;;;;-10.65;100.00;98062.28;4090325;28;20047;-70
2021/12/26 04:17:37;;;;;;;17.27;7.72;;;;;;;-10.68;100.00;98069.97;4088800;28;20384;-70
2021/12/26 04:19:37;;;;;;;20.95;8.65;;;;;;;-10.72;100.00;98072.38;4092023;28;20058;-70
2021/12/26 04:21:37;;;;;;;17.83;7.53;;;;;;;-10.70;100.00;98074.78;4169334;28;21182;-70
2021/12/26 04:23:38;;;;;;;15.35;7.00;;;;;;;-10.69;100.00;98071.03;4089170;28;20051;-70
2021/12/26 04:25:40;;;;;;;22.05;9.68;;;;;;;-10.63;100.00;98068.19;4089421;28;20389;-70
2021/12/26 04:27:40;;;;;;;20.45;8.32;;;;;;;-10.67;100.00;98071.59;4169008;28;20049;-70
2021/12/26 04:29:40;;;;;;;16.50;7.30;;;;;;;-10.68;100.00;98076.13;4087077;28;20085;-70
2021/12/26 04:31:41;;;;;;;17.42;7.85;;;;;;;-10.69;100.00;98079.88;4094857;28;20418;-70
2021/12/26 04:33:42;;;;;;;18.00;7.82;;;;;;;-10.61;100.00;98070.59;4086757;28;20125;-70
2021/12/26 04:35:42;;;;;;;20.90;8.40;;;;;;;-10.61;100.00;98078.63;4089041;28;20139;-70
2021/12/26 04:37:43;;;;;;;20.25;7.80;;;;;;;-10.56;100.00;98074.16;4090232;28;20081;-70
2021/12/26 04:39:44;;;;;;;21.83;8.00;;;;;;;-10.56;100.00;98073.34;4090488;28;20055;-70
2021/12/26 04:41:46;;;;;;;17.15;6.88;;;;;;;-10.54;100.00;98081.91;4091119;28;20909;-70
2021/12/26 04:43:46;;;;;;;16.38;7.22;;;;;;;-10.53;100.00;98078.97;4090282;28;20388;-70
2021/12/26 04:45:47;;;;;;;16.20;6.93;;;;;;;-10.58;100.00;98072.78;4090319;28;20050;-70
2021/12/26 04:47:49;;;;;;;16.70;7.03;;;;;;;-10.62;100.00;98074.34;4097301;28;20086;-70
2021/12/26 04:49:50;;;;;;;17.73;7.60;;;;;;;-10.58;100.00;98076.28;4093347;28;20047;-70
2021/12/26 04:51:50;;;;;;;22.10;8.60;;;;;;;-10.49;100.00;98087.31;4090091;28;20475;-70
2021/12/26 04:53:51;;;;;;;17.10;7.45;;;;;;;-10.57;100.00;98077.06;4089809;28;20054;-70
2021/12/26 04:55:51;;;;;;;18.38;8.75;;;;;;;-10.55;100.00;98082.97;4094269;28;20057;-70
2021/12/26 04:57:52;;;;;;;20.52;8.48;;;;;;;-10.58;100.00;98078.94;4089162;28;20571;-70
2021/12/26 04:59:52;;;;;;;18.23;8.80;;;;;;;-10.44;100.00;98076.66;4089730;28;20318;-70
2021/12/26 05:01:54;;;;;;;24.13;7.85;;;;;;;-10.37;100.00;98084.47;4090205;28;20074;-70
2021/12/26 05:03:54;;;;;;;18.52;7.93;;;;;;;-10.32;100.00;98073.84;4090310;28;20147;-70
2021/12/26 05:05:56;;;;;;;22.65;10.50;;;;;;;-10.45;100.00;98075.03;4089381;28;20498;-70
2021/12/26 05:07:57;;;;;;;19.25;9.50;;;;;;;-10.43;100.00;98072.13;4090621;28;20510;-70
2021/12/26 05:09:57;;;;;;;23.40;8.73;;;;;;;-10.36;100.00;98073.53;4097347;28;20109;-70
2021/12/26 05:11:58;;;;;;;20.00;8.68;;;;;;;-10.44;100.00;98073.19;4089742;28;20047;-70
2021/12/26 05:13:58;;;;;;;19.25;8.20;;;;;;;-10.49;100.00;98082.78;4090212;28;20051;-70
2021/12/26 05:15:58;;;;;;;22.33;9.30;;;;;;;-10.51;100.00;98076.88;4089590;28;20199;-70
2021/12/26 05:18:00;;;;;;;30.58;9.18;;;;;;;-10.52;100.00;98077.91;4089204;28;20062;-70
2021/12/26 05:20:00;;;;;;;24.33;9.73;;;;;;;-10.50;100.00;98072.34;4090669;28;20134;-70
2021/12/26 05:22:00;;;;;;;23.83;9.80;;;;;;;-10.45;100.00;98068.88;4089164;28;20527;-70
2021/12/26 05:24:01;;;;;;;22.10;9.70;;;;;;;-10.38;100.00;98090.91;4089914;28;20102;-71
2021/12/26 05:26:01;;;;;;;23.00;8.43;;;;;;;-10.42;100.00;98077.25;4090789;28;20501;-71
2021/12/26 05:28:02;;;;;;;19.30;9.00;;;;;;;-10.43;100.00;98082.81;4091156;28;20505;-70
2021/12/26 05:30:06;;;;;;;23.30;9.20;;;;;;;-10.49;100.00;98076.63;4089096;28;20142;-70
2021/12/26 05:32:07;;;;;;;24.67;9.93;;;;;;;-10.43;100.00;98074.78;4089407;28;20395;-70
2021/12/26 05:34:07;;;;;;;24.40;9.15;;;;;;;-10.46;100.00;98083.31;4089760;28;20042;-70
2021/12/26 05:36:07;;;;;;;20.63;8.88;;;;;;;-10.70;100.00;98077.44;4089678;28;20039;-70
2021/12/26 05:38:08;;;;;;;19.50;8.63;;;;;;;-10.78;100.00;98082.19;4089326;28;20093;-70
2021/12/26 05:40:10;;;;;;;22.50;8.60;;;;;;;-10.79;100.00;98072.56;4088714;28;20083;-70
2021/12/26 05:42:16;;;;;;;22.00;8.63;;;;;;;-10.70;100.00;98074.78;4089786;28;20035;-70
2021/12/26 05:44:16;;;;;;;22.73;8.48;;;;;;;-10.58;100.00;98070.13;4095113;28;20138;-70
2021/12/26 05:46:16;;;;;;;21.67;8.93;;;;;;;-10.58;100.00;98064.78;4088452;28;20082;-70
2021/12/26 05:48:17;;;;;;;22.00;8.50;;;;;;;-10.53;100.00;98062.13;4111270;28;20110;-70
2021/12/26 05:50:19;;;;;;;18.83;8.73;;;;;;;-10.48;100.00;98063.00;4174936;28;20025;-70
2021/12/26 05:52:19;;;;;;;18.20;8.48;;;;;;;-10.42;100.00;98068.41;4096491;28;20402;-70
2021/12/26 05:54:20;;;;;;;22.75;8.60;;;;;;;-10.50;100.00;98061.63;4187101;28;20044;-70
2021/12/26 05:56:20;;;;;;;24.63;10.07;;;;;;;-10.52;100.00;98066.41;4090311;28;20047;-70
2021/12/26 05:58:21;;;;;;;23.35;9.27;;;;;;;-10.56;100.00;98070.66;4089174;28;20487;-70
2021/12/26 06:00:22;;;;;;;20.08;8.30;;;;;;;-10.60;100.00;98072.22;4090461;28;20046;-70
2021/12/26 06:02:23;;;;;;;20.33;9.52;;;;;;;-10.67;100.00;98068.91;4093962;28;20043;-70
2021/12/26 06:04:24;;;;;;;17.60;7.63;;;;;;;-10.67;100.00;98067.09;4089626;28;20039;-70
2021/12/26 06:06:24;;;;;;;16.55;7.28;;;;;;;-10.67;100.00;98060.91;4089352;28;20053;-70
2021/12/26 06:08:24;;;;;;;15.68;7.43;;;;;;;-10.72;100.00;98067.03;4088752;28;20153;-70
2021/12/26 06:10:25;;;;;;;18.60;7.68;;;;;;;-10.71;100.00;98068.63;4090265;28;20042;-70
2021/12/26 06:12:25;;;;;;;18.85;7.65;;;;;;;-10.70;100.00;98061.41;4089405;28;20173;-70
2021/12/26 06:14:26;;;;;;;25.42;9.48;;;;;;;-10.64;100.00;98063.91;4087313;28;20154;-70
2021/12/26 06:16:26;;;;;;;19.73;8.93;;;;;;;-10.60;100.00;98069.53;4089317;28;20062;-70
2021/12/26 06:18:27;;;;;;;22.27;9.10;;;;;;;-10.54;100.00;98071.22;4088716;28;20283;-70
2021/12/26 06:20:28;;;;;;;20.05;8.57;;;;;;;-10.54;100.00;98065.88;4089618;28;20066;-70
2021/12/26 06:22:29;;;;;;;20.38;8.85;;;;;;;-10.46;100.00;98059.25;4093058;28;20269;-70
2021/12/26 06:24:30;;;;;;;21.95;9.73;;;;;;;-10.43;100.00;98066.75;4091295;28;20047;-70
2021/12/26 06:26:31;;;;;;;21.73;9.30;;;;;;;-10.46;100.00;98068.09;4092061;28;20368;-70
2021/12/26 06:28:32;;;;;;;24.00;8.68;;;;;;;-10.51;100.00;98057.31;4088547;28;20517;-70
2021/12/26 06:30:34;;;;;;;26.33;10.07;;;;;;;-10.49;100.00;98063.25;4089467;28;20331;-70
2021/12/26 06:32:34;;;;;;;25.00;9.85;;;;;;;-10.51;100.00;98060.84;4090641;28;20908;-70
2021/12/26 06:34:35;;;;;;;25.85;10.05;;;;;;;-10.49;100.00;98060.59;4089258;28;20050;-70
2021/12/26 06:36:35;;;;;;;24.70;9.70;;;;;;;-10.49;100.00;98065.94;4087526;28;20048;-70
2021/12/26 06:38:39;;;;;;;22.77;9.20;;;;;;;-10.46;100.00;98057.38;4170324;28;20944;-70
2021/12/26 06:40:39;;;;;;;20.05;8.45;;;;;;;-10.45;100.00;98068.88;4088358;28;20059;-70
2021/12/26 06:42:44;;;;;;;28.83;10.32;;;;;;;-10.45;100.00;98067.03;4172453;28;20044;-70
2021/12/26 06:44:45;;;;;;;24.02;9.45;;;;;;;-10.45;100.00;98058.19;4092851;28;20042;-70
2021/12/26 06:46:46;;;;;;;26.30;10.45;;;;;;;-10.37;100.00;98061.22;4101169;28;20102;-70
2021/12/26 06:48:47;;;;;;;29.85;11.05;;;;;;;-10.34;100.00;98059.91;4093534;28;20053;-70
2021/12/26 06:50:50;;;;;;;27.02;10.60;;;;;;;-10.33;100.00;98065.00;4094169;28;20040;-70
2021/12/26 06:52:50;;;;;;;25.65;10.40;;;;;;;-10.30;100.00;98063.69;4090181;28;20051;-70
2021/12/26 06:54:51;;;;;;;29.48;11.73;;;;;;;-10.25;100.00;98061.88;4089023;28;20062;-70
2021/12/26 06:56:51;;;;;;;28.27;11.52;;;;;;;-10.29;100.00;98059.94;4088386;28;20458;-70
2021/12/26 06:58:53;;;;;;;29.88;11.85;;;;;;;-10.29;100.00;98057.28;4088704;28;20077;-70
2021/12/26 07:00:53;;;;;;;33.67;12.77;;;;;;;-10.25;100.00;98067.22;4092207;28;20062;-70
2021/12/26 07:02:54;;;;;;;29.00;12.43;;;;;;;-10.20;100.00;98067.22;4089484;28;20528;-70
2021/12/26 07:04:54;;;;;;;24.73;10.98;;;;;;;-10.16;100.00;98056.84;4088693;28;20513;-70
2021/12/26 07:06:54;;;;;;;28.33;10.88;;;;;;;-10.04;100.00;98068.16;4087884;28;20058;-70
2021/12/26 07:08:55;;;;;;;31.13;11.63;;;;;;;-10.01;100.00;98065.00;4088177;28;20082;-70
2021/12/26 07:10:56;;;;;;;30.20;12.77;;;;;;;-9.93;100.00;98063.69;4083933;28;20051;-70
2021/12/26 07:12:56;;;;;;;37.50;13.38;;;;;;;-9.91;100.00;98069.63;4075553;28;20519;-70
2021/12/26 07:14:57;;;;;;;37.55;13.20;;;;;;;-9.94;100.00;98062.09;4072936;28;20147;-70
2021/12/26 07:16:57;;;;;;;31.67;12.38;;;;;;;-9.83;100.00;98068.34;4072576;28;20051;-70
2021/12/26 07:18:58;;;;;;;31.70;12.45;;;;;;;-9.81;100.00;98059.00;4072475;28;20051;-70
2021/12/26 07:20:58;;;;;;;33.33;12.27;;;;;;;-9.77;100.00;98069.97;4073006;28;20044;-70
2021/12/26 07:22:59;;;;;;;32.33;12.45;;;;;;;-9.78;100.00;98063.81;4076895;28;20385;-70
2021/12/26 07:24:59;;;;;;;31.98;11.68;;;;;;;-9.78;100.00;98066.50;4075644;28;20051;-70
2021/12/26 07:27:00;;;;;;;33.03;13.63;;;;;;;-9.84;100.00;98067.53;4081591;28;20510;-70
2021/12/26 07:29:00;;;;;;;29.75;12.75;;;;;;;-9.75;100.00;98070.56;4089766;28;20380;-70
2021/12/26 07:31:01;;;;;;;32.15;11.98;;;;;;;-9.75;100.00;98070.56;4090971;28;20043;-70
2021/12/26 07:33:01;;;;;;;35.30;13.00;;;;;;;-9.75;100.00;98062.53;4094413;28;20047;-70
2021/12/26 07:35:02;;;;;;;37.42;12.70;;;;;;;-9.74;100.00;98064.94;4088681;28;20077;-70
2021/12/26 07:37:04;;;;;;;32.15;12.45;;;;;;;-9.73;100.00;98071.09;4088856;28;20085;-70
2021/12/26 07:39:04;;;;;;;32.88;11.52;;;;;;;-9.78;100.00;98063.00;4087596;28;20051;-70
2021/12/26 07:41:04;;;;;;;36.90;13.43;;;;;;;-9.78;100.00;98071.84;4088350;28;20108;-70
2021/12/26 07:43:05;;;;;;;32.13;12.65;;;;;;;-9.79;100.00;98070.25;4087695;28;20130;-70
2021/12/26 07:45:05;;;;;;;31.45;13.20;;;;;;;-9.68;100.00;98069.28;4088729;28;20077;-70
2021/12/26 07:47:06;;;;;;;29.15;12.70;;;;;;;-9.64;100.00;98062.31;4089937;28;20047;-70
2021/12/26 07:49:06;;;;;;;29.17;11.75;;;;;;;-9.56;100.00;98066.38;4087791;28;20059;-70
2021/12/26 07:51:07;;;;;;;31.95;13.07;;;;;;;-9.54;100.00;98068.81;4089437;28;20975;-70
2021/12/26 07:53:10;;;;;;;30.30;12.27;;;;;;;-9.51;100.00;98058.41;4087181;28;20051;-70
2021/12/26 07:55:13;;;;;;;32.35;11.80;;;;;;;-9.50;100.00;98070.72;4088691;28;20110;-70
2021/12/26 07:57:14;;;;;;;32.22;13.80;;;;;;;-9.45;100.00;98067.25;4090069;28;20048;-70
2021/12/26 07:59:14;;;;;;;30.58;12.13;;;;;;;-9.45;100.00;98070.72;4088274;28;20561;-70
2021/12/26 08:01:15;;;;;;;30.10;11.77;;;;;;;-9.52;100.00;98070.16;4087527;28;20166;-70
2021/12/26 08:03:15;;;;;;;32.88;11.60;;;;;;;-9.53;100.00;98071.22;4098109;28;20046;-70
2021/12/26 08:05:16;;;;;;;33.80;12.20;;;;;;;-9.50;100.00;98065.38;4088009;28;20456;-70
2021/12/26 08:07:17;;;;;;;37.45;13.20;;;;;;;-9.47;100.00;98072.06;4089217;28;20073;-70
2021/12/26 08:09:17;;;;;;;36.13;14.15;;;;;;;-9.47;100.00;98085.47;4091013;28;20104;-70
2021/12/26 08:11:18;;;;;;;27.73;13.05;;;;;;;-9.50;100.00;98076.06;4090311;28;20398;-70
2021/12/26 08:13:18;;;;;;;39.92;15.77;;;;;;;-9.45;100.00;98081.44;4094204;28;20078;-70
2021/12/26 08:15:19;;;;;;;35.20;14.77;;;;;;;-9.44;100.00;98083.06;4095964;28;20046;-70
2021/12/26 08:17:19;;;;;;;38.50;15.68;;;;;;;-9.39;100.00;98071.59;4093714;28;20047;-70
2021/12/26 08:19:19;;;;;;;31.63;13.10;;;;;;;-9.41;99.92;98071.84;4091753;28;20039;-70
2021/12/26 08:21:20;;;;;;;30.55;12.88;;;;;;;-9.45;100.00;98080.66;4093091;28;20437;-70
2021/12/26 08:23:21;;;;;;;28.75;13.88;;;;;;;-9.46;100.00;98071.00;4091055;28;20055;-70
2021/12/26 08:25:21;;;;;;;37.78;13.50;;;;;;;-9.35;100.00;98080.69;4092838;28;20054;-70
2021/12/26 08:27:22;;;;;;;30.45;13.63;;;;;;;-9.39;100.00;98071.59;4091394;28;20047;-70
2021/12/26 08:29:23;;;;;;;27.05;11.43;;;;;;;-9.38;100.00;98073.19;4090559;28;20071;-70
2021/12/26 08:31:23;;;;;;;31.48;12.48;;;;;;;-9.38;100.00;98070.50;4090156;28;20142;-70
2021/12/26 08:33:24;;;;;;;30.10;14.00;;;;;;;-9.27;100.00;98069.50;4090634;28;20593;-70
2021/12/26 08:35:24;;;;;;;32.55;13.15;;;;;;;-9.29;99.93;98070.81;4090046;28;20112;-70
2021/12/26 08:37:26;;;;;;;28.73;12.13;;;;;;;-9.24;100.00;98077.03;4087780;28;20062;-70
2021/12/26 08:39:29;;;;;;;34.65;14.13;;;;;;;-9.18;100.00;98078.69;4090389;28;20047;-70
2021/12/26 08:41:30;;;;;;;33.38;12.57;;;;;;;-9.18;99.14;98070.63;4096998;28;20043;-70
2021/12/26 08:43:30;;;;;;;31.92;13.07;;;;;;;-9.20;98.42;98075.44;4097266;28;20069;-70
2021/12/26 08:45:31;;;;;;;34.45;13.88;;;;;;;-9.21;99.06;98063.09;4092885;28;20051;-70
2021/12/26 08:47:31;;;;;;;33.97;14.68;;;;;;;-9.17;98.36;98076.81;4095399;28;20078;-70
2021/12/26 08:49:32;;;;;;;35.38;14.15;;;;;;;-9.18;98.20;98067.16;4092811;28;20097;-70
2021/12/26 08:51:32;;;;;;;40.85;15.65;;;;;;;-9.16;99.11;98070.38;4103846;28;20207;-70
2021/12/26 08:53:33;;;;;;;36.20;15.63;;;;;;;-9.16;98.65;98076.53;4091183;28;20371;-70
2021/12/26 08:55:35;;;;;;;37.47;13.68;;;;;;;-9.11;99.37;98067.69;4092789;28;20473;-70
2021/12/26 08:57:36;;;;;;;35.05;13.73;;;;;;;-9.00;100.00;98074.75;4175780;28;20045;-70
2021/12/26 08:59:37;;;;;;;33.00;12.82;;;;;;;-9.00;98.61;98074.75;4092668;28;20053;-70
2021/12/26 09:01:38;;;;;;;33.15;14.23;;;;;;;-8.99;97.63;98071.00;4090694;28;20047;-70
2021/12/26 09:03:38;;;;;;;39.13;14.88;;;;;;;-8.97;98.72;98076.09;4089822;28;20082;-70
2021/12/26 09:05:39;;;;;;;33.65;14.02;;;;;;;-8.95;97.31;98073.94;4089611;28;20438;-70
2021/12/26 09:07:40;;;;;;;39.25;14.25;;;;;;;-8.95;97.36;98076.63;4094970;28;20054;-70
2021/12/26 09:09:41;;;;;;;26.10;12.60;;;;;;;-8.89;97.40;98073.69;4102453;28;20158;-70
2021/12/26 09:11:42;;;;;;;34.50;15.00;;;;;;;-8.89;96.87;98070.22;4090282;28;20055;-70
2021/12/26 09:13:45;;;;;;;33.13;14.57;;;;;;;-8.85;96.96;98080.16;4099941;28;20190;-70
2021/12/26 09:15:50;;;;;;;32.33;14.32;;;;;;;-8.84;97.28;98078.28;4109765;28;20074;-70
2021/12/26 09:17:52;;;;;;;41.20;16.33;;;;;;;-8.75;97.64;98083.97;4104583;28;20045;-70
2021/12/26 09:19:53;;;;;;;41.03;14.23;;;;;;;-8.74;97.13;98074.84;4096389;28;20047;-70